»·PEaware :: N4871T KLAS-KPSP

N4871T :: KLAS-KPSP

FLIGHT INFORMATION

Flight Status: Arrived
Operator: Privately registered:
United States
More flights under this callsign
Pilot: Raphael S. (13144)
Aircraft: BEECH AIRCRAFT BARON
(BE58)
More flights by this aircraft type
Origin: KLAS McCarran Intl
United States
Destination: KPSP Palm Springs Intl
United States
More flights between these airports :: More routes between these airports
Route: +LAS V538 GFS V514 TNP V370 PSP
File this flight plan on PilotEdge
Remarks:
Altitude:
(Current/Filed)
12,000ft
Speed:
(Current/Filed)
210kts
Departed: 23-Dec-17 11:21 AM
Arrived: 23-Dec-17 12:26 PM
Distance/Time
Traveled:
151nm/1:05
Distance/Time
To Go:
Arrived

Flight Plot

Page will automatically refresh every two minutes.

Flight plan parsing failed; only flown route is shown


Map Options




Map Legend


Flown Route
Filed Route
Departure Airport
Arrival Airport
Navaid (VOR, NDB)
Fix

Horizontal Profiles

Position Reports

Time Latitude Longitude Heading Altitude Ground
Speed
23-Dec-17 11:08 36.080456 -115.170836 125 2144ft 0kts
23-Dec-17 11:09 36.080456 -115.170836 125 2144ft 0kts
23-Dec-17 11:10 36.080456 -115.170836 125 2144ft 0kts
23-Dec-17 11:11 36.080456 -115.170836 125 2144ft 0kts
23-Dec-17 11:12 36.080456 -115.170836 125 2144ft 0kts
23-Dec-17 11:13 36.080456 -115.170836 125 2144ft 0kts
23-Dec-17 11:14 36.080456 -115.170836 125 2144ft 0kts
23-Dec-17 11:15 36.080438 -115.170759 96 2144ft 0kts
23-Dec-17 11:16 36.080419 -115.170542 96 2144ft 2kts
23-Dec-17 11:17 36.081492 -115.169566 88 2144ft 8kts
23-Dec-17 11:18 36.082590 -115.168522 61 2144ft 4kts
23-Dec-17 11:19 36.083888 -115.166970 27 2144ft 8kts
23-Dec-17 11:20 36.085606 -115.165985 24 2144ft 5kts
23-Dec-17 11:21 36.086975 -115.165205 24 2144ft 5kts
23-Dec-17 11:22 36.089036 -115.164019 23 2144ft 10kts
23-Dec-17 11:23 36.092014 -115.162324 24 2144ft 12kts
23-Dec-17 11:24 36.095302 -115.160438 24 2144ft 13kts
23-Dec-17 11:25 36.098440 -115.158645 24 2144ft 9kts
23-Dec-17 11:26 36.099037 -115.157867 118 2144ft 0kts
23-Dec-17 11:27 36.092278 -115.160637 203 2148ft 104kts
23-Dec-17 11:28 36.062248 -115.167953 180 3657ft 110kts
23-Dec-17 11:29 36.029859 -115.169522 182 4972ft 124kts
23-Dec-17 11:30 35.997414 -115.171616 186 6358ft 119kts
23-Dec-17 11:31 35.964210 -115.174281 186 7619ft 121kts
23-Dec-17 11:32 35.930328 -115.176561 174 8777ft 126kts
23-Dec-17 11:33 35.895978 -115.171839 180 9866ft 126kts
23-Dec-17 11:34 35.853791 -115.169797 182 10010ft 180kts
23-Dec-17 11:35 35.800906 -115.169263 183 10000ft 196kts
23-Dec-17 11:36 35.745877 -115.169531 183 9998ft 199kts
23-Dec-17 11:37 35.690416 -115.170061 183 9998ft 200kts
23-Dec-17 11:38 35.635250 -115.170471 183 10143ft 193kts
23-Dec-17 11:39 35.583511 -115.169233 181 10671ft 182kts
23-Dec-17 11:40 35.533598 -115.169714 189 11147ft 179kts
23-Dec-17 11:41 35.483891 -115.172397 186 11599ft 179kts
23-Dec-17 11:42 35.434009 -115.173208 185 12029ft 179kts
23-Dec-17 11:43 35.381991 -115.173831 185 12016ft 195kts
23-Dec-17 11:44 35.328761 -115.174372 185 12016ft 198kts
23-Dec-17 11:45 35.273562 -115.174932 185 12018ft 199kts
23-Dec-17 11:46 35.217961 -115.175498 185 12021ft 200kts
23-Dec-17 11:47 35.162486 -115.176060 185 12025ft 201kts
23-Dec-17 11:48 35.108348 -115.186354 205 12028ft 196kts
23-Dec-17 11:49 35.057226 -115.209079 205 12031ft 196kts
23-Dec-17 11:50 35.005846 -115.231797 204 12032ft 196kts
23-Dec-17 11:51 34.954818 -115.254336 204 12032ft 195kts
23-Dec-17 11:52 34.903852 -115.276801 204 12032ft 194kts
23-Dec-17 11:53 34.853690 -115.298869 203 12030ft 194kts
23-Dec-17 11:54 34.803022 -115.321138 204 12030ft 193kts
23-Dec-17 11:55 34.752126 -115.343485 203 11985ft 195kts
23-Dec-17 11:56 34.701596 -115.365634 203 11986ft 194kts
23-Dec-17 11:57 34.650997 -115.387789 203 11993ft 193kts
23-Dec-17 11:58 34.600577 -115.409837 203 12001ft 194kts
23-Dec-17 11:59 34.549625 -115.432082 203 12011ft 194kts
23-Dec-17 12:00 34.498761 -115.454266 203 12012ft 195kts
23-Dec-17 12:01 34.447743 -115.476486 203 12012ft 195kts
23-Dec-17 12:02 34.396586 -115.498735 203 12012ft 195kts
23-Dec-17 12:03 34.345611 -115.520885 203 12012ft 195kts
23-Dec-17 12:04 34.302092 -115.556202 227 12013ft 190kts
23-Dec-17 12:05 34.263464 -115.599821 227 12012ft 190kts
23-Dec-17 12:06 34.224755 -115.643420 227 12012ft 190kts
23-Dec-17 12:07 34.187689 -115.685108 226 12015ft 191kts
23-Dec-17 12:08 34.148812 -115.728777 226 12015ft 191kts
23-Dec-17 12:09 34.111080 -115.773686 246 11999ft 186kts
23-Dec-17 12:10 34.090084 -115.830614 249 11996ft 186kts
23-Dec-17 12:11 34.069249 -115.887813 249 11993ft 186kts
23-Dec-17 12:12 34.048338 -115.945108 249 11983ft 186kts
23-Dec-17 12:13 34.027439 -116.002330 249 11973ft 186kts
23-Dec-17 12:14 34.006667 -116.059042 249 11960ft 180kts
23-Dec-17 12:15 33.970790 -116.092141 191 10816ft 174kts
23-Dec-17 12:16 33.925655 -116.099231 191 8930ft 159kts
23-Dec-17 12:17 33.884505 -116.106059 191 7062ft 145kts
23-Dec-17 12:18 33.840712 -116.114053 191 7025ft 180kts
23-Dec-17 12:19 33.788975 -116.124022 191 7018ft 192kts
23-Dec-17 12:20 33.736158 -116.134258 191 7017ft 194kts
23-Dec-17 12:21 33.683464 -116.144538 191 6530ft 188kts
23-Dec-17 12:22 33.632468 -116.154992 190 5442ft 185kts
23-Dec-17 12:23 33.624923 -116.194711 310 4546ft 175kts
23-Dec-17 12:24 33.657491 -116.238211 305 4025ft 173kts
23-Dec-17 12:25 33.689277 -116.285680 309 4068ft 187kts
23-Dec-17 12:26 33.718236 -116.324269 309 3986ft 190kts
23-Dec-17 12:27 33.746330 -116.377071 300 3698ft 184kts
23-Dec-17 12:28 33.768757 -116.425534 287 2550ft 150kts
23-Dec-17 12:29 33.781549 -116.465641 310 1673ft 115kts
23-Dec-17 12:30 33.806383 -116.487108 324 894ft 106kts
23-Dec-17 12:31 33.827808 -116.506066 329 480ft 48kts
23-Dec-17 12:32 33.828852 -116.508154 272 480ft 0kts
23-Dec-17 12:33 33.828360 -116.509121 7 480ft 0kts

Navigation Log

Ident Type
Flight plan parsing failed, navigation log unavailable